createdAt,value
2016-08-03T06:45:15.275Z,1865
2016-08-03T06:46:16.025Z,1925
2016-08-03T06:47:15.173Z,1875
2016-08-03T06:48:15.918Z,1515
2016-08-03T06:49:15.930Z,1475
2016-08-03T06:50:15.337Z,1360
2016-08-03T06:51:16.051Z,1555
2016-08-03T06:52:15.404Z,1405
2016-08-03T06:53:16.134Z,1500
2016-08-03T06:54:16.155Z,1625
2016-08-03T06:55:14.848Z,1705
2016-08-03T06:56:15.603Z,1465
2016-08-03T06:57:14.898Z,1605
2016-08-03T06:58:16.362Z,2355
2016-08-03T06:59:15.680Z,2410
2016-08-03T07:00:16.475Z,1600
2016-08-03T07:01:15.830Z,1280
2016-08-03T07:02:16.584Z,1215
2016-08-03T07:03:16.593Z,1210
2016-08-03T07:04:16.881Z,1185
2016-08-03T07:05:30.937Z,1245
2016-08-03T07:06:16.033Z,1390
2016-08-03T07:07:16.095Z,1545
2016-08-03T07:08:16.840Z,1485
2016-08-03T07:09:16.899Z,1430
2016-08-03T07:10:15.831Z,1330
2016-08-03T07:11:16.321Z,1600
2016-08-03T07:12:17.038Z,1495
2016-08-03T07:13:15.709Z,1425
2016-08-03T07:14:16.438Z,1510
2016-08-03T07:15:16.583Z,1650
2016-08-03T07:16:16.513Z,1885
2016-08-03T07:17:15.883Z,2120
2016-08-03T07:18:15.260Z,1765
2016-08-03T07:19:16.671Z,1485
2016-08-03T07:20:16.698Z,1750
2016-08-03T07:21:17.476Z,2600
2016-08-03T07:22:17.534Z,2995
2016-08-03T07:23:16.906Z,2820
2016-08-03T07:24:16.900Z,2585
2016-08-03T07:25:17.685Z,1680
2016-08-03T07:26:16.273Z,1430
2016-08-03T07:27:16.367Z,1505
2016-08-03T07:28:17.100Z,1785
2016-08-03T07:29:15.800Z,2690
2016-08-03T07:30:16.508Z,2945
2016-08-03T07:31:17.212Z,1990
2016-08-03T07:32:18.001Z,1840
2016-08-03T07:33:18.041Z,2535
2016-08-03T07:34:18.144Z,2800
2016-08-03T07:36:18.169Z,1950
2016-08-03T07:37:18.275Z,1940
2016-08-03T07:38:18.275Z,2060
2016-08-03T07:39:16.900Z,1705
2016-08-03T07:40:18.420Z,1565
2016-08-03T07:41:18.447Z,1365
2016-08-03T07:42:18.487Z,1400
2016-08-03T07:43:16.428Z,1365
2016-08-03T07:44:17.178Z,1345
2016-08-03T07:45:17.976Z,1515
2016-08-03T07:46:17.993Z,1660
2016-08-03T07:47:18.760Z,1720
2016-08-03T07:48:18.073Z,1920
2016-08-03T07:49:16.716Z,2300
2016-08-03T07:50:18.192Z,2375
2016-08-03T07:51:18.906Z,2315
2016-08-03T07:52:17.597Z,2305
2016-08-03T07:53:18.979Z,2285
2016-08-03T07:54:19.322Z,2295
2016-08-03T07:55:18.422Z,2190
2016-08-03T07:56:18.445Z,2190
2016-08-03T07:57:19.224Z,2110
2016-08-03T07:58:17.856Z,1550
2016-08-03T07:59:18.605Z,2100
2016-08-03T08:00:19.378Z,2255
2016-08-03T08:01:18.705Z,2000
2016-08-03T08:02:19.426Z,2145
2016-08-03T08:03:19.471Z,2615
2016-08-03T08:04:18.821Z,3085
2016-08-03T08:05:19.626Z,2365
2016-08-03T08:06:19.686Z,1410
2016-08-03T08:07:19.673Z,1175
2016-08-03T08:08:19.740Z,1160
2016-08-03T08:09:19.837Z,1200
2016-08-03T08:10:19.835Z,1295
2016-08-03T08:11:19.178Z,2460
2016-08-03T08:12:19.229Z,3090
2016-08-03T08:13:17.895Z,2100
2016-08-03T08:14:19.285Z,1835
2016-08-03T08:15:20.075Z,1945
2016-08-03T08:16:20.133Z,1640
2016-08-03T08:17:19.455Z,1800
2016-08-03T08:18:18.809Z,1965
2016-08-03T08:19:18.890Z,2000
2016-08-03T08:20:20.304Z,2265
2016-08-03T08:21:19.656Z,2230
2016-08-03T08:22:20.374Z,2315
2016-08-03T08:23:19.794Z,2540
2016-08-03T08:24:19.822Z,2630
2016-08-03T08:25:19.887Z,2840
2016-08-03T08:26:20.617Z,3150
2016-08-03T08:27:19.252Z,2860
2016-08-03T08:28:19.989Z,2690
2016-08-03T08:29:20.734Z,3170
2016-08-03T08:30:20.127Z,2855
2016-08-03T08:31:20.852Z,2290
2016-08-03T08:32:20.910Z,2680
2016-08-03T08:33:20.971Z,3195
2016-08-03T08:34:20.322Z,3275
2016-08-03T08:35:21.047Z,3300
2016-08-03T08:36:21.109Z,2655
2016-08-03T08:37:21.165Z,3060
2016-08-03T08:38:20.460Z,2635
2016-08-03T08:39:21.258Z,2650
2016-08-03T08:40:20.610Z,2770
2016-08-03T08:41:19.937Z,2765
2016-08-03T08:42:21.376Z,3590
2016-08-03T08:43:21.461Z,3645
2016-08-03T08:44:21.498Z,3180
2016-08-03T08:45:20.912Z,2965
2016-08-03T08:46:20.864Z,2790
2016-08-03T08:47:21.634Z,2455
2016-08-03T08:48:21.687Z,2535
2016-08-03T08:49:21.959Z,3295
2016-08-03T08:50:20.393Z,3475
2016-08-03T08:51:21.171Z,2750
2016-08-03T08:52:20.481Z,1610
2016-08-03T08:53:21.236Z,1265
2016-08-03T08:54:21.270Z,1175
2016-08-03T08:55:22.251Z,1140
2016-08-03T08:56:22.101Z,1200
2016-08-03T08:57:21.453Z,1285
2016-08-03T08:58:22.177Z,1605
2016-08-03T08:59:21.503Z,2950
2016-08-03T09:00:21.765Z,2985
2016-08-03T09:01:21.613Z,2085
2016-08-03T09:02:21.672Z,2145
2016-08-03T09:03:21.029Z,2275
2016-08-03T09:04:35.259Z,3130
2016-08-03T09:05:21.836Z,3540
2016-08-03T09:06:20.499Z,3230
2016-08-03T09:07:22.617Z,3055
2016-08-03T09:08:22.648Z,3060
2016-08-03T09:09:22.936Z,2870
2016-08-03T09:10:22.087Z,3245
2016-08-03T09:11:22.872Z,3310
2016-08-03T09:12:22.201Z,2900
2016-08-03T09:13:22.881Z,2410
2016-08-03T09:14:21.544Z,2445
2016-08-03T09:15:21.630Z,2850
2016-08-03T09:16:22.382Z,3225
2016-08-03T09:17:22.504Z,2660
2016-08-03T09:18:22.464Z,2740
2016-08-03T09:19:23.193Z,3165
2016-08-03T09:20:21.889Z,3150
2016-08-03T09:21:22.676Z,3145
2016-08-03T09:22:23.362Z,3025
2016-08-03T09:23:22.015Z,3405
2016-08-03T09:24:22.728Z,3875
2016-08-03T09:25:23.557Z,4105
2016-08-03T09:26:23.551Z,4080
2016-08-03T09:27:22.220Z,4340
2016-08-03T09:28:23.691Z,4395
2016-08-03T09:29:22.998Z,3775
2016-08-03T09:30:22.333Z,3490
2016-08-03T09:31:22.402Z,3575
2016-08-03T09:32:22.481Z,3535
2016-08-03T09:33:23.892Z,3970
2016-08-03T09:34:23.987Z,4545
2016-08-03T09:35:23.289Z,4750
2016-08-03T09:36:24.092Z,4675
2016-08-03T09:37:23.410Z,4165
2016-08-03T09:38:23.488Z,3230
2016-08-03T09:39:23.494Z,3125
2016-08-03T09:40:22.876Z,3045
2016-08-03T09:41:23.572Z,2740
2016-08-03T09:42:23.681Z,2895
2016-08-03T09:43:23.745Z,3410
2016-08-03T09:44:24.440Z,3965
2016-08-03T09:45:24.062Z,4610
2016-08-03T09:46:24.587Z,4560
2016-08-03T09:47:23.204Z,4395
2016-08-03T09:48:24.681Z,3735
2016-08-03T09:49:23.320Z,3915
2016-08-03T09:50:23.384Z,4510
2016-08-03T09:51:24.107Z,3400
2016-08-03T09:52:22.776Z,2295
2016-08-03T09:53:24.184Z,1780
2016-08-03T09:54:24.262Z,1565
2016-08-03T09:55:23.638Z,1515
2016-08-03T09:56:25.060Z,1550
2016-08-03T09:57:23.695Z,1640
2016-08-03T09:58:24.471Z,2095
2016-08-03T09:59:24.509Z,3175
2016-08-03T10:00:25.318Z,4135
2016-08-03T10:01:24.619Z,3915
2016-08-03T10:02:23.273Z,2695
2016-08-03T10:03:25.426Z,3635
2016-08-03T10:04:24.871Z,3570
2016-08-03T10:05:25.472Z,3515
2016-08-03T10:06:25.540Z,2460
2016-08-03T10:07:25.640Z,3135
2016-08-03T10:08:25.206Z,2320
2016-08-03T10:09:24.310Z,3870
2016-08-03T10:10:25.081Z,3330
2016-08-03T10:11:25.139Z,4175
2016-08-03T10:12:24.502Z,4285
2016-08-03T10:13:25.282Z,4090
2016-08-03T10:14:26.054Z,3420
2016-08-03T10:15:26.035Z,3340
2016-08-03T10:16:23.773Z,3325
2016-08-03T10:17:25.421Z,3715
2016-08-03T10:18:25.467Z,3625
2016-08-03T10:19:24.820Z,3855
2016-08-03T10:20:26.285Z,4225
2016-08-03T10:21:26.299Z,4000
2016-08-03T10:22:25.019Z,3970
2016-08-03T10:23:25.746Z,4475
2016-08-03T10:24:25.792Z,4855
2016-08-03T10:25:25.850Z,3855
2016-08-03T10:26:26.585Z,3060
2016-08-03T10:27:25.921Z,2635
2016-08-03T10:28:26.087Z,2545
2016-08-03T10:29:26.756Z,2545
2016-08-03T10:30:26.759Z,3060
2016-08-03T10:31:25.192Z,4015
2016-08-03T10:32:26.882Z,4845
2016-08-03T10:33:26.927Z,4520
2016-08-03T10:34:26.970Z,4055
2016-08-03T10:35:26.340Z,3995
2016-08-03T10:36:24.968Z,4295
2016-08-03T10:37:26.423Z,3730
2016-08-03T10:38:27.184Z,3700
2016-08-03T10:39:26.500Z,3960
2016-08-03T10:40:25.885Z,3930
2016-08-03T10:41:27.355Z,3835
2016-08-03T10:42:26.699Z,3705
2016-08-03T10:43:26.745Z,3780
2016-08-03T10:44:25.387Z,3720
2016-08-03T10:45:26.903Z,3695
2016-08-03T10:47:26.982Z,3810
2016-08-03T10:48:26.976Z,3820
2016-08-03T10:49:27.737Z,3625
2016-08-03T10:50:27.095Z,3675
2016-08-03T10:51:27.153Z,4000
2016-08-03T10:52:26.485Z,3970
2016-08-03T10:53:27.305Z,3305
2016-08-03T10:54:25.912Z,3650
2016-08-03T10:55:28.073Z,4140
2016-08-03T10:56:26.686Z,4085
2016-08-03T10:57:27.494Z,3805
2016-08-03T10:58:26.119Z,3690
2016-08-03T10:59:27.590Z,3715
2016-08-03T11:00:28.359Z,4230
2016-08-03T11:01:25.822Z,3980
2016-08-03T11:02:26.308Z,3945
2016-08-03T11:03:27.783Z,3705
2016-08-03T11:04:27.849Z,3680
2016-08-03T11:05:27.864Z,3860
2016-08-03T11:06:27.939Z,4055
2016-08-03T11:07:27.272Z,4195
2016-08-03T11:08:27.982Z,3790
2016-08-03T11:09:28.801Z,2965
2016-08-03T11:10:28.088Z,3940
2016-08-03T11:11:28.181Z,3975
2016-08-03T11:12:28.272Z,4100
2016-08-03T11:13:28.999Z,3975
2016-08-03T11:14:29.021Z,3735
2016-08-03T11:15:28.384Z,1380
2016-08-03T11:17:29.226Z,1365
2016-08-03T11:18:29.252Z,4125
2016-08-03T11:19:29.332Z,3010
2016-08-03T11:20:29.334Z,4245
2016-08-03T11:21:28.744Z,4115
2016-08-03T11:22:31.313Z,3745
2016-08-03T11:23:30.185Z,3315
2016-08-03T11:24:32.641Z,3325
2016-08-03T11:25:32.922Z,3150
2016-08-03T11:26:32.998Z,3805
2016-08-03T11:28:00.230Z,2255
2016-08-03T11:28:44.979Z,2470
2016-08-03T11:29:48.764Z,2615
2016-08-03T11:30:47.737Z,2435
2016-08-03T11:32:30.060Z,2345
2016-08-03T11:33:29.337Z,2240
2016-08-03T11:34:28.005Z,2375
2016-08-03T11:35:29.467Z,2320
2016-08-03T11:36:29.538Z,1660
2016-08-03T11:37:30.231Z,1630
2016-08-03T11:38:30.573Z,1620
2016-08-03T11:39:29.844Z,1780
2016-08-03T11:40:30.454Z,5425
2016-08-03T11:41:29.750Z,1710
2016-08-03T11:42:29.809Z,1260
2016-08-03T11:43:30.557Z,1030
2016-08-03T11:44:30.684Z,810
2016-08-03T11:45:29.444Z,710
2016-08-03T11:47:30.742Z,4475
2016-08-03T11:48:30.850Z,4890
2016-08-03T11:49:30.866Z,4400
2016-08-03T11:50:30.221Z,1210
2016-08-03T11:51:30.266Z,1345
2016-08-03T11:52:31.035Z,1160
2016-08-03T11:53:29.676Z,970
2016-08-03T11:54:30.448Z,970
2016-08-03T11:55:31.192Z,1040
2016-08-03T11:56:31.284Z,1105
2016-08-03T11:57:31.253Z,1060
2016-08-03T11:58:30.649Z,1425
2016-08-03T11:59:30.683Z,2050
2016-08-03T12:00:30.772Z,1610
2016-08-03T12:01:29.155Z,1650
2016-08-03T12:02:30.888Z,1175
2016-08-03T12:03:31.615Z,1305
2016-08-03T12:04:30.258Z,1055
2016-08-03T12:05:31.688Z,1510
2016-08-03T12:06:31.742Z,1745
2016-08-03T12:07:31.075Z,2960
2016-08-03T12:08:31.812Z,1500
2016-08-03T12:09:31.256Z,2675
2016-08-03T12:10:31.274Z,3670
2016-08-03T12:11:30.612Z,1300
2016-08-03T12:12:30.651Z,1070
2016-08-03T12:13:30.697Z,2000
2016-08-03T12:14:31.485Z,1705
2016-08-03T12:15:32.195Z,2370
2016-08-03T12:16:45.077Z,1385
2016-08-03T12:17:32.339Z,1195
2016-08-03T12:18:30.967Z,1515
2016-08-03T12:19:32.450Z,1595
2016-08-03T12:20:32.471Z,4965
2016-08-03T12:21:31.834Z,5170
2016-08-03T12:22:32.842Z,1310
2016-08-03T12:23:31.220Z,1125
2016-08-03T12:24:32.694Z,1225
2016-08-03T12:25:32.754Z,1510
2016-08-03T12:26:32.093Z,1225
2016-08-03T12:27:31.417Z,1255
2016-08-03T12:28:32.902Z,1495
2016-08-03T12:29:32.969Z,1490
2016-08-03T12:30:33.239Z,1835
2016-08-03T12:32:32.377Z,1290
2016-08-03T12:33:33.150Z,965
2016-08-03T12:34:31.766Z,1100
2016-08-03T12:35:31.852Z,1300
2016-08-03T12:36:33.360Z,1390
2016-08-03T12:37:33.320Z,1550
2016-08-03T12:38:32.000Z,1845
2016-08-03T12:39:33.504Z,2020
2016-08-03T12:40:33.508Z,4760
2016-08-03T12:41:32.864Z,4580
2016-08-03T12:42:33.620Z,4310
2016-08-03T12:43:32.317Z,3735
2016-08-03T12:44:33.695Z,2255
2016-08-03T12:45:33.221Z,1520
2016-08-03T12:47:33.863Z,1595
2016-08-03T12:48:33.233Z,1425
2016-08-03T12:49:33.977Z,970
2016-08-03T12:50:34.033Z,800
2016-08-03T12:51:33.381Z,860
2016-08-03T12:52:33.459Z,1110
2016-08-03T12:53:34.219Z,1270
2016-08-03T12:54:34.284Z,1810
2016-08-03T12:55:32.898Z,1710
2016-08-03T12:56:34.353Z,1635
2016-08-03T12:57:34.420Z,1605
2016-08-03T12:58:33.771Z,1265
2016-08-03T12:59:33.813Z,1160
2016-08-03T13:00:34.540Z,1120
2016-08-03T13:02:33.258Z,1070
2016-08-03T13:03:34.024Z,1045
2016-08-03T13:04:34.766Z,1380
2016-08-03T13:05:34.139Z,2025
2016-08-03T13:06:34.205Z,1390
2016-08-03T13:07:34.249Z,1800
2016-08-03T13:08:34.976Z,3125
2016-08-03T13:09:35.090Z,1735
2016-08-03T13:10:35.083Z,2015
2016-08-03T13:11:35.124Z,2705
2016-08-03T13:12:34.469Z,2680
2016-08-03T13:13:35.234Z,1660
2016-08-03T13:14:35.300Z,1880
2016-08-03T13:15:35.349Z,1700
2016-08-03T13:17:34.715Z,1800
2016-08-03T13:18:35.507Z,1490
2016-08-03T13:19:35.513Z,1490
2016-08-03T13:20:34.908Z,1230
2016-08-03T13:21:35.655Z,1610
2016-08-03T13:22:34.992Z,2810
2016-08-03T13:23:35.780Z,1550
2016-08-03T13:24:35.793Z,1950
2016-08-03T13:25:35.191Z,1590
2016-08-03T13:26:35.868Z,2145
2016-08-03T13:27:35.948Z,1815
2016-08-03T13:28:36.046Z,1740
2016-08-03T13:29:36.360Z,2170
2016-08-03T13:30:34.730Z,2175
2016-08-03T13:32:35.555Z,1990
2016-08-03T13:33:35.590Z,2025
2016-08-03T13:34:36.353Z,3265
2016-08-03T13:35:35.003Z,3340
2016-08-03T13:36:35.765Z,2995
2016-08-03T13:37:36.559Z,2115
2016-08-03T13:38:35.852Z,1625
2016-08-03T13:39:35.496Z,1240
2016-08-03T13:40:36.916Z,1330
2016-08-03T13:41:36.936Z,1385
2016-08-03T13:42:36.940Z,1405
2016-08-03T13:43:36.114Z,1450
2016-08-03T13:44:36.183Z,1740
2016-08-03T13:45:36.625Z,2095
2016-08-03T13:46:36.938Z,2105
2016-08-03T13:47:34.953Z,1635
2016-08-03T13:48:37.108Z,1790
2016-08-03T13:49:35.799Z,1270
2016-08-03T13:50:37.185Z,1135
2016-08-03T13:51:37.180Z,1225
2016-08-03T13:52:36.526Z,1310
2016-08-03T13:53:37.331Z,1330
2016-08-03T13:54:37.424Z,1200
2016-08-03T13:55:36.070Z,1290
2016-08-03T13:56:37.559Z,1510
2016-08-03T13:57:37.510Z,1140
2016-08-03T13:58:37.186Z,1135
2016-08-03T13:59:37.621Z,1180
2016-08-03T14:00:37.001Z,1505
2016-08-03T14:01:37.017Z,2120
2016-08-03T14:02:37.812Z,1025
2016-08-03T14:03:37.184Z,1450
2016-08-03T14:04:37.913Z,1415
2016-08-03T14:05:37.215Z,1315
2016-08-03T14:06:38.011Z,1755
2016-08-03T14:07:37.996Z,1600
2016-08-03T14:08:36.710Z,1965
2016-08-03T14:09:37.503Z,2030
2016-08-03T14:10:38.235Z,1355
2016-08-03T14:11:38.306Z,1205
2016-08-03T14:12:38.362Z,1225
2016-08-03T14:13:37.718Z,1170
2016-08-03T14:14:37.669Z,1880
2016-08-03T14:15:38.505Z,1795
2016-08-03T14:16:38.727Z,1895
2016-08-03T14:17:38.587Z,1465
2016-08-03T14:18:38.643Z,1395
2016-08-03T14:19:38.699Z,1485
2016-08-03T14:20:38.735Z,1460
2016-08-03T14:21:38.872Z,1310
2016-08-03T14:22:38.839Z,1000
2016-08-03T14:23:38.229Z,1035
2016-08-03T14:24:38.287Z,985
2016-08-03T14:25:38.328Z,1565
2016-08-03T14:26:39.064Z,2285
2016-08-03T14:27:39.071Z,2490
2016-08-03T14:28:39.527Z,1135
2016-08-03T14:29:39.158Z,1005
2016-08-03T14:30:39.235Z,1135
2016-08-03T14:31:38.602Z,1165
2016-08-03T14:32:39.412Z,1335
2016-08-03T14:33:39.374Z,1735
2016-08-03T14:34:38.047Z,1380
2016-08-03T14:35:39.454Z,2480
2016-08-03T14:36:38.823Z,1620
2016-08-03T14:37:39.197Z,1450
2016-08-03T14:38:39.725Z,1425
2016-08-03T14:39:38.999Z,1160
2016-08-03T14:40:39.757Z,1095
2016-08-03T14:41:39.875Z,1505
2016-08-03T14:42:39.221Z,1630
2016-08-03T14:43:39.963Z,1850
2016-08-03T14:44:39.934Z,1510
2016-08-03T14:45:40.428Z,1440
2016-08-03T14:46:40.130Z,1265
2016-08-03T14:47:40.133Z,1690
2016-08-03T14:48:38.818Z,1860
2016-08-03T14:49:39.551Z,2425
2016-08-03T14:50:40.298Z,2130
2016-08-03T14:51:38.950Z,1360
2016-08-03T14:52:39.715Z,1035
2016-08-03T14:53:39.738Z,1205
2016-08-03T14:54:40.502Z,1740
2016-08-03T14:55:39.885Z,1360
2016-08-03T14:56:39.912Z,1345
2016-08-03T14:57:40.673Z,1545
2016-08-03T14:58:40.009Z,1085
2016-08-03T14:59:40.827Z,885
2016-08-03T15:00:40.812Z,980
2016-08-03T15:01:40.154Z,780
2016-08-03T15:02:40.224Z,800
2016-08-03T15:03:40.232Z,800
2016-08-03T15:04:41.018Z,835
2016-08-03T15:05:40.336Z,785
2016-08-03T15:06:39.028Z,820
2016-08-03T15:07:39.797Z,1100
2016-08-03T15:08:41.234Z,1080
2016-08-03T15:09:41.253Z,1210
2016-08-03T15:10:41.335Z,1290
2016-08-03T15:11:40.650Z,1270
2016-08-03T15:12:39.348Z,1050
2016-08-03T15:13:40.779Z,1100
2016-08-03T15:14:41.531Z,1270
2016-08-03T15:15:41.612Z,1500
2016-08-03T15:16:41.652Z,1825
2016-08-03T15:17:40.972Z,1715
2016-08-03T15:18:40.352Z,1645
2016-08-03T15:19:41.793Z,1520
2016-08-03T15:20:41.139Z,1225
2016-08-03T15:21:41.246Z,950
2016-08-03T15:22:41.960Z,975
2016-08-03T15:23:42.010Z,870
2016-08-03T15:24:42.040Z,730
2016-08-03T15:25:42.093Z,815
2016-08-03T15:26:40.944Z,770
2016-08-03T15:27:40.807Z,690
2016-08-03T15:28:42.318Z,675
2016-08-03T15:29:41.630Z,630
2016-08-03T15:30:42.354Z,800
2016-08-03T15:31:41.724Z,875
2016-08-03T15:32:41.810Z,935
2016-08-03T15:33:41.851Z,1165
2016-08-03T15:34:42.587Z,1275
2016-08-03T15:35:42.641Z,1230
2016-08-03T15:36:41.313Z,1100
2016-08-03T15:37:42.720Z,1020
2016-08-03T15:38:41.378Z,1095
2016-08-03T15:39:42.155Z,1100
2016-08-03T15:40:42.258Z,975
2016-08-03T15:41:42.931Z,955
2016-08-03T15:42:41.654Z,1045
2016-08-03T15:43:43.063Z,930
2016-08-03T15:44:43.114Z,965
2016-08-03T15:45:43.324Z,980
2016-08-03T15:46:43.270Z,740
2016-08-03T15:47:41.861Z,920
2016-08-03T15:48:42.635Z,775
2016-08-03T15:49:42.660Z,815
2016-08-03T15:50:43.420Z,840
2016-08-03T15:51:42.757Z,795
2016-08-03T15:52:43.504Z,815
2016-08-03T15:53:43.570Z,595
2016-08-03T15:54:43.664Z,635
2016-08-03T15:55:42.981Z,670
2016-08-03T15:56:43.754Z,740
2016-08-03T15:57:42.353Z,695
2016-08-03T15:58:42.429Z,595
2016-08-03T15:59:42.492Z,585
2016-08-03T16:00:43.243Z,580
2016-08-03T16:01:43.274Z,795
2016-08-03T16:02:43.336Z,915
2016-08-03T16:03:43.456Z,960
2016-08-03T16:04:44.118Z,870
2016-08-03T16:05:44.224Z,805
2016-08-03T16:06:44.207Z,830
2016-08-03T16:07:44.315Z,915
2016-08-03T16:08:43.641Z,885
2016-08-03T16:09:44.388Z,795
2016-08-03T16:10:43.718Z,980
2016-08-03T16:11:43.854Z,1065
2016-08-03T16:12:43.899Z,1010
2016-08-03T16:13:43.923Z,755
2016-08-03T16:14:44.685Z,690
2016-08-03T16:15:44.036Z,865
2016-08-03T16:16:43.379Z,720
2016-08-03T16:17:44.379Z,855
2016-08-03T16:18:44.186Z,845
2016-08-03T16:19:44.222Z,865
2016-08-03T16:20:44.942Z,880
2016-08-03T16:21:42.946Z,925
2016-08-03T16:22:43.723Z,950
2016-08-03T16:23:44.450Z,945
2016-08-03T16:24:45.218Z,905
2016-08-03T16:25:44.518Z,860
2016-08-03T16:26:44.619Z,865
2016-08-03T16:27:43.907Z,855
2016-08-03T16:28:44.690Z,840
2016-08-03T16:29:45.418Z,835
2016-08-03T16:30:45.513Z,800
2016-08-03T16:31:44.891Z,785
2016-08-03T16:32:45.666Z,765
2016-08-03T16:33:44.276Z,750
2016-08-03T16:34:45.034Z,740
2016-08-03T16:35:45.096Z,600
2016-08-03T16:36:45.115Z,650
2016-08-03T16:37:45.170Z,660
2016-08-03T16:38:45.935Z,635
2016-08-03T16:39:45.299Z,635
2016-08-03T16:40:45.264Z,680
2016-08-03T16:41:46.079Z,675
2016-08-03T16:42:46.102Z,685
2016-08-03T16:43:45.443Z,695
2016-08-03T16:44:46.266Z,695
2016-08-03T16:45:44.948Z,700
2016-08-03T16:46:45.590Z,700
2016-08-03T16:47:44.268Z,685
2016-08-03T16:48:45.950Z,660
2016-08-03T16:49:45.778Z,620
2016-08-03T16:50:45.870Z,580
2016-08-03T16:51:46.594Z,550
2016-08-03T16:52:46.651Z,540
2016-08-03T16:53:45.949Z,535
2016-08-03T16:54:46.723Z,535
2016-08-03T16:55:45.371Z,530
2016-08-03T16:56:45.455Z,525
2016-08-03T16:57:46.851Z,505
2016-08-03T16:58:46.210Z,485
2016-08-03T16:59:46.257Z,465
2016-08-03T17:00:47.243Z,445
2016-08-03T17:01:46.396Z,420
2016-08-03T17:02:45.271Z,400
2016-08-03T17:03:47.192Z,390
2016-08-03T17:04:47.239Z,380
2016-08-03T17:05:47.311Z,380
2016-08-03T17:06:47.312Z,380
2016-08-03T17:07:47.378Z,385
2016-08-03T17:08:46.760Z,385
2016-08-03T17:09:47.513Z,375
2016-08-03T17:10:47.491Z,365
2016-08-03T17:11:46.910Z,350
2016-08-03T17:12:46.243Z,340
2016-08-03T17:13:46.288Z,335
2016-08-03T17:14:47.034Z,330
2016-08-03T17:15:47.099Z,320
2016-08-03T17:16:47.843Z,315
2016-08-03T17:17:46.728Z,310
2016-08-03T17:18:47.280Z,300
2016-08-03T17:19:48.061Z,300
2016-08-03T17:20:46.633Z,300
2016-08-03T17:21:46.688Z,295
2016-08-03T17:22:47.441Z,300
2016-08-03T17:23:46.789Z,310
2016-08-03T17:24:47.580Z,310
2016-08-03T17:25:47.564Z,315
2016-08-03T17:26:47.649Z,330
2016-08-03T17:27:47.730Z,340
2016-08-03T17:28:48.466Z,365
2016-08-03T17:29:47.838Z,385
2016-08-03T17:30:47.827Z,400
2016-08-03T17:31:47.955Z,410
2016-08-03T17:32:46.821Z,405
2016-08-03T17:33:48.047Z,410
2016-08-03T17:34:47.347Z,405
2016-08-03T17:35:48.077Z,425
2016-08-03T17:36:48.869Z,405
2016-08-03T17:37:48.187Z,405
2016-08-03T17:38:48.937Z,565
2016-08-03T17:39:48.330Z,550
2016-08-03T17:40:48.377Z,530
2016-08-03T17:41:48.438Z,380
2016-08-03T17:42:48.446Z,400
2016-08-03T17:43:47.826Z,310
2016-08-03T17:44:48.565Z,245
2016-08-03T17:45:48.698Z,195
2016-08-03T17:46:49.370Z,180
2016-08-03T17:48:48.099Z,195
2016-08-03T17:49:49.697Z,250
2016-08-03T17:50:49.548Z,270
2016-08-03T17:51:48.205Z,270
2016-08-03T17:52:48.291Z,335
2016-08-03T17:53:49.741Z,515
2016-08-03T17:54:49.798Z,460
2016-08-03T17:55:49.834Z,410
2016-08-03T17:56:49.175Z,295
2016-08-03T17:57:49.953Z,495
2016-08-03T17:58:49.294Z,335
2016-08-03T17:59:49.309Z,370
2016-08-03T18:00:50.080Z,345
2016-08-03T18:01:48.717Z,290
2016-08-03T18:03:50.260Z,225
2016-08-03T18:04:50.302Z,200
2016-08-03T18:05:50.339Z,190
2016-08-03T18:06:50.386Z,180
2016-08-03T18:07:49.700Z,175
2016-08-03T18:08:49.736Z,185
2016-08-03T18:09:49.816Z,190
2016-08-03T18:10:50.605Z,160
2016-08-03T18:11:49.407Z,150
2016-08-03T18:12:50.665Z,135
2016-08-03T18:13:50.057Z,120
2016-08-03T18:14:50.364Z,165
2016-08-03T18:15:50.156Z,210
2016-08-03T18:16:50.901Z,185
2016-08-03T18:17:50.252Z,120
2016-08-03T18:18:49.592Z,110
2016-08-03T18:19:51.072Z,95
2016-08-03T18:20:51.087Z,85
2016-08-03T18:22:05.365Z,70
2016-08-03T18:22:50.497Z,70
2016-08-03T18:23:50.538Z,70
2016-08-03T18:24:51.328Z,70
2016-08-03T18:25:50.621Z,70
2016-08-03T18:26:51.384Z,70
2016-08-03T18:27:50.743Z,80
2016-08-03T18:28:50.797Z,80
2016-08-03T18:29:50.823Z,60
2016-08-03T18:30:50.906Z,55
2016-08-03T18:31:50.997Z,60
2016-08-03T18:32:50.974Z,60
2016-08-03T18:33:49.614Z,55
2016-08-03T18:34:51.134Z,50
2016-08-03T18:35:51.155Z,50
2016-08-03T18:36:51.374Z,45
2016-08-03T18:37:51.259Z,45
2016-08-03T18:38:50.585Z,40
2016-08-03T18:39:51.362Z,35
2016-08-03T18:40:52.089Z,30
2016-08-03T18:41:51.463Z,25
2016-08-03T18:42:52.159Z,25
2016-08-03T18:43:52.269Z,20
2016-08-03T18:44:50.907Z,20
2016-08-03T18:46:05.546Z,20
2016-08-03T18:46:52.426Z,15
2016-08-03T18:47:52.481Z,15
2016-08-03T18:48:50.429Z,15
2016-08-03T18:49:51.120Z,10
2016-08-03T18:50:52.615Z,5
2016-08-03T18:51:52.633Z,5
2016-08-03T18:52:52.679Z,5
2016-08-03T18:53:52.737Z,5
2016-08-03T18:54:52.775Z,5
2016-08-03T18:55:51.428Z,5
2016-08-03T18:56:51.495Z,0
2016-08-03T18:57:51.579Z,0
2016-08-03T18:59:05.775Z,0
2016-08-03T18:59:52.309Z,0
2016-08-03T19:00:53.192Z,0
2016-08-03T19:01:51.721Z,0
2016-08-03T19:02:52.450Z,0
2016-08-03T19:03:52.535Z,0
2016-08-03T19:04:53.279Z,0
2016-08-03T19:05:51.247Z,0
2016-08-03T19:06:52.664Z,0
2016-08-03T19:07:52.259Z,0
2016-08-03T19:08:53.477Z,0
2016-08-03T19:09:53.556Z,0
2016-08-03T19:10:53.559Z,0
2016-08-03T19:11:53.825Z,0
2016-08-03T19:12:53.193Z,0
2016-08-03T19:14:07.946Z,0
2016-08-03T19:14:53.776Z,0
2016-08-03T19:15:52.474Z,0
2016-08-03T19:16:53.305Z,0
2016-08-03T19:17:53.236Z,0
2016-08-03T19:18:54.009Z,0
2016-08-03T19:19:54.485Z,0
2016-08-03T19:20:54.106Z,0
2016-08-03T19:21:52.724Z,0
2016-08-03T19:23:07.419Z,0
2016-08-03T19:23:53.060Z,0
2016-08-03T19:24:53.792Z,0
2016-08-03T19:25:54.332Z,0
2016-08-03T19:26:54.362Z,0
2016-08-03T19:27:53.731Z,0
2016-08-03T19:28:54.525Z,0
2016-08-03T19:30:08.053Z,0
2016-08-03T19:30:53.244Z,0
2016-08-03T19:32:08.129Z,0
2016-08-03T19:32:53.299Z,0
2016-08-03T19:33:54.018Z,0
2016-08-03T19:34:54.792Z,0
2016-08-03T19:35:54.128Z,0
2016-08-03T19:36:55.106Z,0
2016-08-03T19:37:53.537Z,0
2016-08-03T19:38:53.584Z,0
2016-08-03T19:39:53.651Z,0
2016-08-03T19:40:55.075Z,0
2016-08-03T19:41:54.432Z,0
2016-08-03T19:42:54.448Z,0
2016-08-03T19:43:54.510Z,0
2016-08-03T19:44:53.900Z,0
2016-08-03T19:45:55.332Z,0
2016-08-03T19:46:53.990Z,0
2016-08-03T19:47:55.428Z,0
2016-08-03T19:48:55.683Z,0
2016-08-03T19:49:54.817Z,0
2016-08-03T19:50:54.905Z,0
2016-08-03T19:51:55.806Z,0
2016-08-03T19:52:54.988Z,0
2016-08-03T19:53:55.007Z,0
2016-08-03T19:54:55.757Z,0
2016-08-03T19:55:55.119Z,0
2016-08-03T19:56:54.468Z,0
2016-08-03T19:57:55.924Z,0
2016-08-03T19:58:56.007Z,0
2016-08-03T19:59:55.293Z,0
2016-08-03T20:00:55.554Z,0
2016-08-03T20:01:54.688Z,0
2016-08-03T20:02:54.765Z,0
2016-08-03T20:03:55.521Z,0
2016-08-03T20:04:55.564Z,0
2016-08-03T20:05:54.933Z,0
2016-08-03T20:06:54.935Z,0
2016-08-03T20:07:56.419Z,0
2016-08-03T20:08:56.458Z,0
2016-08-03T20:09:55.830Z,0
2016-08-03T20:10:55.881Z,0
2016-08-03T20:11:55.872Z,0
2016-08-03T20:12:56.901Z,0
2016-08-03T20:13:55.299Z,0
2016-08-03T20:14:56.033Z,0
2016-08-03T20:15:56.805Z,0
2016-08-03T20:16:56.187Z,0
2016-08-03T20:17:56.214Z,0
2016-08-03T20:18:55.532Z,0
2016-08-03T20:19:56.348Z,0
2016-08-03T20:20:56.321Z,0
2016-08-03T20:21:57.044Z,0
2016-08-03T20:22:56.420Z,0
2016-08-03T20:23:57.201Z,0
2016-08-03T20:24:56.544Z,0
2016-08-03T20:25:56.808Z,0
2016-08-03T20:26:56.165Z,0
2016-08-03T20:27:56.025Z,0
2016-08-03T20:28:56.773Z,0
2016-08-03T20:30:11.018Z,0
2016-08-03T20:30:56.787Z,0
2016-08-03T20:31:56.223Z,0
2016-08-03T20:32:57.640Z,0
2016-08-03T20:33:56.972Z,0
2016-08-03T20:34:57.010Z,0